KDKR

Houston County Airport

Crockett, Texas, USA
METAR KDKR 151330Z AUTO 00000KT 10SM 05/M02 A3030 RMK AO2
Observed Flight Rules
Dec-15 @ 13:30 UTC (34 minutes ago)
Wind Visibility
Calm 10 miles
Temperatures Readings
Current 5°C / 41°F
Dewpoint -2°C / 28°F
Humidity 61%
Altimeter 30.3" Hg
Pressure 1026 hPa
Elevation 106
METAR KDKR 151330Z AUTO 00000KT 10SM 05/M02 A3030 RMK AO2
Observed Flight Rules
Dec-15 @ 13:30 UTC
(34 minutes ago)
Wind Visibility
Calm 10 miles
Temperature Dewpoint
5°C / 41°F -2°C / 28°F
Humidity Altimeter Pressure
61% 30.3" Hg 1026 hPa